sensor_id;sensor_type;location;lat;lon;timestamp;temperature;humidity
19224;DHT22;9746;47.180;9.776;2022-07-10T06:18:35;16.90;99.90
19224;DHT22;9746;47.180;9.776;2022-07-10T06:21:03;16.90;99.90
19224;DHT22;9746;47.180;9.776;2022-07-10T06:23:37;16.90;99.90
19224;DHT22;9746;47.180;9.776;2022-07-10T06:26:04;16.90;99.90
19224;DHT22;9746;47.180;9.776;2022-07-10T06:28:36;17.00;99.90
19224;DHT22;9746;47.180;9.776;2022-07-10T06:31:05;17.10;99.90
19224;DHT22;9746;47.180;9.776;2022-07-10T06:33:38;17.10;99.90
19224;DHT22;9746;47.180;9.776;2022-07-10T06:36:06;17.10;99.90
19224;DHT22;9746;47.180;9.776;2022-07-10T06:38:34;17.10;99.90
19224;DHT22;9746;47.180;9.776;2022-07-10T06:41:02;17.10;99.90
19224;DHT22;9746;47.180;9.776;2022-07-10T06:43:30;17.10;99.90
19224;DHT22;9746;47.180;9.776;2022-07-10T06:45:57;17.10;99.90
19224;DHT22;9746;47.180;9.776;2022-07-10T06:48:27;17.10;99.90
19224;DHT22;9746;47.180;9.776;2022-07-10T06:50:56;17.10;99.90
19224;DHT22;9746;47.180;9.776;2022-07-10T06:53:23;17.10;99.90
19224;DHT22;9746;47.180;9.776;2022-07-10T06:55:53;17.10;99.90
19224;DHT22;9746;47.180;9.776;2022-07-10T06:58:21;17.10;99.90
19224;DHT22;9746;47.180;9.776;2022-07-10T07:00:48;17.10;99.90
19224;DHT22;9746;47.180;9.776;2022-07-10T07:03:16;17.10;99.90
19224;DHT22;9746;47.180;9.776;2022-07-10T07:05:44;17.00;99.90
19224;DHT22;9746;47.180;9.776;2022-07-10T07:08:12;17.10;99.90
19224;DHT22;9746;47.180;9.776;2022-07-10T07:10:42;17.20;99.90
19224;DHT22;9746;47.180;9.776;2022-07-10T07:13:10;17.20;99.90
19224;DHT22;9746;47.180;9.776;2022-07-10T07:15:37;17.20;99.90
19224;DHT22;9746;47.180;9.776;2022-07-10T07:18:15;17.30;99.90
19224;DHT22;9746;47.180;9.776;2022-07-10T07:20:43;17.30;99.90
19224;DHT22;9746;47.180;9.776;2022-07-10T07:23:36;17.40;99.90
19224;DHT22;9746;47.180;9.776;2022-07-10T07:26:04;17.50;99.90
19224;DHT22;9746;47.180;9.776;2022-07-10T07:28:35;17.60;99.90
19224;DHT22;9746;47.180;9.776;2022-07-10T07:31:02;17.70;99.90
19224;DHT22;9746;47.180;9.776;2022-07-10T07:33:31;17.80;99.90
19224;DHT22;9746;47.180;9.776;2022-07-10T07:35:58;17.90;99.90
19224;DHT22;9746;47.180;9.776;2022-07-10T07:38:39;18.00;99.90
19224;DHT22;9746;47.180;9.776;2022-07-10T07:41:07;18.20;99.90
19224;DHT22;9746;47.180;9.776;2022-07-10T07:43:39;18.30;99.90
19224;DHT22;9746;47.180;9.776;2022-07-10T07:46:06;18.40;99.90
19224;DHT22;9746;47.180;9.776;2022-07-10T07:48:43;18.40;99.90
19224;DHT22;9746;47.180;9.776;2022-07-10T07:51:11;18.50;99.90
19224;DHT22;9746;47.180;9.776;2022-07-10T07:53:51;18.50;99.90
19224;DHT22;9746;47.180;9.776;2022-07-10T07:56:18;18.50;99.90
19224;DHT22;9746;47.180;9.776;2022-07-10T07:58:47;18.60;99.90
19224;DHT22;9746;47.180;9.776;2022-07-10T08:01:14;18.60;99.90
19224;DHT22;9746;47.180;9.776;2022-07-10T08:03:42;18.70;99.90
19224;DHT22;9746;47.180;9.776;2022-07-10T08:06:10;18.70;99.90
19224;DHT22;9746;47.180;9.776;2022-07-10T08:08:51;18.80;99.90
19224;DHT22;9746;47.180;9.776;2022-07-10T08:11:18;18.80;99.90
19224;DHT22;9746;47.180;9.776;2022-07-10T08:13:52;18.80;99.90
19224;DHT22;9746;47.180;9.776;2022-07-10T08:16:21;18.80;99.90
19224;DHT22;9746;47.180;9.776;2022-07-10T08:19:00;18.80;99.90
19224;DHT22;9746;47.180;9.776;2022-07-10T08:21:27;18.80;99.90
19224;DHT22;9746;47.180;9.776;2022-07-10T08:23:58;18.90;99.90
19224;DHT22;9746;47.180;9.776;2022-07-10T08:26:25;18.90;99.90
19224;DHT22;9746;47.180;9.776;2022-07-10T08:29:05;19.10;99.90
19224;DHT22;9746;47.180;9.776;2022-07-10T08:31:32;19.20;99.90
19224;DHT22;9746;47.180;9.776;2022-07-10T08:34:01;19.40;99.90
19224;DHT22;9746;47.180;9.776;2022-07-10T08:36:29;19.60;99.90
19224;DHT22;9746;47.180;9.776;2022-07-10T08:39:01;19.80;99.90
19224;DHT22;9746;47.180;9.776;2022-07-10T08:41:29;20.00;99.90
19224;DHT22;9746;47.180;9.776;2022-07-10T08:43:59;20.20;99.90
19224;DHT22;9746;47.180;9.776;2022-07-10T08:46:27;20.40;99.90
19224;DHT22;9746;47.180;9.776;2022-07-10T08:48:59;20.60;99.90
19224;DHT22;9746;47.180;9.776;2022-07-10T08:51:36;21.00;99.90
19224;DHT22;9746;47.180;9.776;2022-07-10T08:54:08;21.40;99.90
19224;DHT22;9746;47.180;9.776;2022-07-10T08:56:37;21.60;99.90
19224;DHT22;9746;47.180;9.776;2022-07-10T08:59:08;21.90;99.90
19224;DHT22;9746;47.180;9.776;2022-07-10T09:01:35;22.10;99.90
19224;DHT22;9746;47.180;9.776;2022-07-10T09:04:06;22.50;99.90
19224;DHT22;9746;47.180;9.776;2022-07-10T09:06:33;22.80;99.90
19224;DHT22;9746;47.180;9.776;2022-07-10T09:09:10;23.00;99.90
19224;DHT22;9746;47.180;9.776;2022-07-10T09:11:38;23.10;99.90
19224;DHT22;9746;47.180;9.776;2022-07-10T09:14:20;23.20;99.90
19224;DHT22;9746;47.180;9.776;2022-07-10T09:16:50;23.30;99.90
19224;DHT22;9746;47.180;9.776;2022-07-10T09:19:19;23.50;99.90
19224;DHT22;9746;47.180;9.776;2022-07-10T09:21:50;23.60;99.90
19224;DHT22;9746;47.180;9.776;2022-07-10T09:24:22;23.90;99.90
19224;DHT22;9746;47.180;9.776;2022-07-10T09:26:59;24.20;99.90
19224;DHT22;9746;47.180;9.776;2022-07-10T09:29:29;24.30;99.90
19224;DHT22;9746;47.180;9.776;2022-07-10T09:31:58;24.50;99.90
19224;DHT22;9746;47.180;9.776;2022-07-10T09:34:38;24.50;99.90
19224;DHT22;9746;47.180;9.776;2022-07-10T09:37:24;24.50;99.90
19224;DHT22;9746;47.180;9.776;2022-07-10T09:40:00;24.40;99.90
19224;DHT22;9746;47.180;9.776;2022-07-10T09:42:31;24.20;99.90
19224;DHT22;9746;47.180;9.776;2022-07-10T09:45:20;24.10;99.90
19224;DHT22;9746;47.180;9.776;2022-07-10T09:47:55;24.10;99.90
19224;DHT22;9746;47.180;9.776;2022-07-10T09:50:30;24.20;99.90
19224;DHT22;9746;47.180;9.776;2022-07-10T09:53:00;24.40;99.90
19224;DHT22;9746;47.180;9.776;2022-07-10T09:55:33;24.70;99.90
19224;DHT22;9746;47.180;9.776;2022-07-10T09:58:03;24.90;99.90
19224;DHT22;9746;47.180;9.776;2022-07-10T10:00:39;25.00;99.90
19224;DHT22;9746;47.180;9.776;2022-07-10T10:03:08;25.20;99.90
19224;DHT22;9746;47.180;9.776;2022-07-10T10:05:53;25.60;99.90
19224;DHT22;9746;47.180;9.776;2022-07-10T10:08:25;26.00;99.90
19224;DHT22;9746;47.180;9.776;2022-07-10T10:11:00;26.10;99.90
19224;DHT22;9746;47.180;9.776;2022-07-10T10:13:29;26.30;99.90
19224;DHT22;9746;47.180;9.776;2022-07-10T10:15:58;26.30;99.90
19224;DHT22;9746;47.180;9.776;2022-07-10T10:18:27;26.40;99.90
19224;DHT22;9746;47.180;9.776;2022-07-10T10:21:07;26.40;99.90
19224;DHT22;9746;47.180;9.776;2022-07-10T10:23:34;26.50;99.90
19224;DHT22;9746;47.180;9.776;2022-07-10T10:26:04;26.70;99.90
19224;DHT22;9746;47.180;9.776;2022-07-10T10:28:34;26.90;99.90
19224;DHT22;9746;47.180;9.776;2022-07-10T10:31:02;27.20;99.90
19224;DHT22;9746;47.180;9.776;2022-07-10T10:33:45;27.40;99.90
19224;DHT22;9746;47.180;9.776;2022-07-10T10:39:10;27.80;99.90
19224;DHT22;9746;47.180;9.776;2022-07-10T10:41:42;27.70;99.90
19224;DHT22;9746;47.180;9.776;2022-07-10T10:44:27;27.50;99.90
19224;DHT22;9746;47.180;9.776;2022-07-10T10:47:03;27.10;99.90
19224;DHT22;9746;47.180;9.776;2022-07-10T10:49:49;26.50;99.90
19224;DHT22;9746;47.180;9.776;2022-07-10T10:52:17;26.50;99.90
19224;DHT22;9746;47.180;9.776;2022-07-10T10:55:07;26.10;99.90
19224;DHT22;9746;47.180;9.776;2022-07-10T10:57:38;26.00;99.90
19224;DHT22;9746;47.180;9.776;2022-07-10T11:03:17;26.50;99.90
19224;DHT22;9746;47.180;9.776;2022-07-10T11:05:46;26.90;99.90
19224;DHT22;9746;47.180;9.776;2022-07-10T11:08:14;27.00;99.90
19224;DHT22;9746;47.180;9.776;2022-07-10T11:11:37;26.90;99.90
19224;DHT22;9746;47.180;9.776;2022-07-10T11:14:11;27.30;99.90
19224;DHT22;9746;47.180;9.776;2022-07-10T11:16:45;27.40;99.90
19224;DHT22;9746;47.180;9.776;2022-07-10T11:19:21;27.50;99.90
19224;DHT22;9746;47.180;9.776;2022-07-10T11:24:46;27.60;99.90
19224;DHT22;9746;47.180;9.776;2022-07-10T11:27:28;27.30;99.90
19224;DHT22;9746;47.180;9.776;2022-07-10T11:29:59;27.60;99.90
19224;DHT22;9746;47.180;9.776;2022-07-10T11:32:28;27.90;99.90
19224;DHT22;9746;47.180;9.776;2022-07-10T11:34:55;27.80;99.90
19224;DHT22;9746;47.180;9.776;2022-07-10T11:37:23;27.60;99.90
19224;DHT22;9746;47.180;9.776;2022-07-10T11:40:08;27.90;99.90
19224;DHT22;9746;47.180;9.776;2022-07-10T11:42:54;28.10;99.90
19224;DHT22;9746;47.180;9.776;2022-07-10T11:45:26;27.90;99.90
19224;DHT22;9746;47.180;9.776;2022-07-10T11:47:55;27.80;99.90
19224;DHT22;9746;47.180;9.776;2022-07-10T11:50:24;27.80;99.90
19224;DHT22;9746;47.180;9.776;2022-07-10T11:52:54;28.00;99.90
19224;DHT22;9746;47.180;9.776;2022-07-10T11:55:23;28.00;99.90
19224;DHT22;9746;47.180;9.776;2022-07-10T11:57:51;27.40;99.90
19224;DHT22;9746;47.180;9.776;2022-07-10T12:00:32;27.40;99.90
19224;DHT22;9746;47.180;9.776;2022-07-10T12:03:18;27.70;99.90
19224;DHT22;9746;47.180;9.776;2022-07-10T12:05:47;27.30;99.90
19224;DHT22;9746;47.180;9.776;2022-07-10T12:08:16;27.20;99.90
19224;DHT22;9746;47.180;9.776;2022-07-10T12:10:45;27.70;99.90
19224;DHT22;9746;47.180;9.776;2022-07-10T12:13:14;28.10;99.90
19224;DHT22;9746;47.180;9.776;2022-07-10T12:15:45;28.40;99.90
19224;DHT22;9746;47.180;9.776;2022-07-10T12:18:16;29.00;99.90
19224;DHT22;9746;47.180;9.776;2022-07-10T12:20:46;29.70;99.90
19224;DHT22;9746;47.180;9.776;2022-07-10T12:23:15;29.50;99.90
19224;DHT22;9746;47.180;9.776;2022-07-10T12:25:44;29.50;99.90
19224;DHT22;9746;47.180;9.776;2022-07-10T12:28:13;30.00;99.90
19224;DHT22;9746;47.180;9.776;2022-07-10T12:30:42;30.40;99.90
19224;DHT22;9746;47.180;9.776;2022-07-10T12:33:12;30.10;99.90
19224;DHT22;9746;47.180;9.776;2022-07-10T12:35:47;29.80;99.90
19224;DHT22;9746;47.180;9.776;2022-07-10T12:38:18;30.40;99.90
19224;DHT22;9746;47.180;9.776;2022-07-10T12:40:47;30.40;99.90
19224;DHT22;9746;47.180;9.776;2022-07-10T12:43:27;31.10;99.90
19224;DHT22;9746;47.180;9.776;2022-07-10T12:46:14;31.60;99.90
19224;DHT22;9746;47.180;9.776;2022-07-10T12:51:27;31.30;99.90
19224;DHT22;9746;47.180;9.776;2022-07-10T12:53:55;31.30;99.90
19224;DHT22;9746;47.180;9.776;2022-07-10T12:56:30;32.00;99.90
19224;DHT22;9746;47.180;9.776;2022-07-10T12:58:58;33.10;99.90
19224;DHT22;9746;47.180;9.776;2022-07-10T13:01:27;32.90;99.90
19224;DHT22;9746;47.180;9.776;2022-07-10T13:04:01;32.70;99.90
19224;DHT22;9746;47.180;9.776;2022-07-10T13:06:30;32.70;99.90
19224;DHT22;9746;47.180;9.776;2022-07-10T13:08:58;31.80;99.90
19224;DHT22;9746;47.180;9.776;2022-07-10T13:11:27;31.50;99.90
19224;DHT22;9746;47.180;9.776;2022-07-10T13:13:54;31.60;99.90
19224;DHT22;9746;47.180;9.776;2022-07-10T13:16:22;31.90;99.90
19224;DHT22;9746;47.180;9.776;2022-07-10T13:18:50;31.70;99.90
19224;DHT22;9746;47.180;9.776;2022-07-10T13:21:19;32.00;99.90
19224;DHT22;9746;47.180;9.776;2022-07-10T13:23:46;32.40;99.90
19224;DHT22;9746;47.180;9.776;2022-07-10T13:26:14;33.40;99.90
19224;DHT22;9746;47.180;9.776;2022-07-10T13:28:42;34.30;98.60
19224;DHT22;9746;47.180;9.776;2022-07-10T13:31:09;33.70;99.00
19224;DHT22;9746;47.180;9.776;2022-07-10T13:33:38;34.20;98.10
19224;DHT22;9746;47.180;9.776;2022-07-10T13:36:06;34.00;97.80
19224;DHT22;9746;47.180;9.776;2022-07-10T13:38:36;34.30;97.60
19224;DHT22;9746;47.180;9.776;2022-07-10T13:41:04;34.70;97.70
19224;DHT22;9746;47.180;9.776;2022-07-10T13:43:32;35.80;94.90
19224;DHT22;9746;47.180;9.776;2022-07-10T13:46:01;36.50;94.10
19224;DHT22;9746;47.180;9.776;2022-07-10T13:48:29;36.50;92.70
19224;DHT22;9746;47.180;9.776;2022-07-10T13:50:58;35.70;92.00
19224;DHT22;9746;47.180;9.776;2022-07-10T13:53:26;34.50;93.70
19224;DHT22;9746;47.180;9.776;2022-07-10T13:55:55;34.50;94.10
19224;DHT22;9746;47.180;9.776;2022-07-10T13:58:22;34.60;93.70
19224;DHT22;9746;47.180;9.776;2022-07-10T14:00:50;35.10;93.10
19224;DHT22;9746;47.180;9.776;2022-07-10T14:03:17;35.10;92.50
19224;DHT22;9746;47.180;9.776;2022-07-10T14:05:45;34.30;93.60
19224;DHT22;9746;47.180;9.776;2022-07-10T14:08:13;35.40;93.80
19224;DHT22;9746;47.180;9.776;2022-07-10T14:10:40;34.90;91.50
19224;DHT22;9746;47.180;9.776;2022-07-10T14:13:09;34.00;92.70
19224;DHT22;9746;47.180;9.776;2022-07-10T14:15:37;33.60;92.80
19224;DHT22;9746;47.180;9.776;2022-07-10T14:18:04;34.40;92.20
19224;DHT22;9746;47.180;9.776;2022-07-10T14:20:32;34.30;91.60
19224;DHT22;9746;47.180;9.776;2022-07-10T14:23:20;34.80;91.80
19224;DHT22;9746;47.180;9.776;2022-07-10T14:25:48;34.50;91.70
19224;DHT22;9746;47.180;9.776;2022-07-10T14:28:17;34.60;91.80
19224;DHT22;9746;47.180;9.776;2022-07-10T14:30:44;35.40;90.90
19224;DHT22;9746;47.180;9.776;2022-07-10T14:33:11;34.60;90.60
19224;DHT22;9746;47.180;9.776;2022-07-10T14:35:39;35.30;91.80
19224;DHT22;9746;47.180;9.776;2022-07-10T14:38:06;36.20;89.20
19224;DHT22;9746;47.180;9.776;2022-07-10T14:40:34;36.50;89.20
19224;DHT22;9746;47.180;9.776;2022-07-10T14:43:01;36.90;86.50
19224;DHT22;9746;47.180;9.776;2022-07-10T14:45:30;37.30;86.80
19224;DHT22;9746;47.180;9.776;2022-07-10T14:47:57;38.40;85.70
19224;DHT22;9746;47.180;9.776;2022-07-10T14:50:25;39.40;82.70
19224;DHT22;9746;47.180;9.776;2022-07-10T14:52:53;39.80;81.80
19224;DHT22;9746;47.180;9.776;2022-07-10T14:55:20;39.60;78.60
19224;DHT22;9746;47.180;9.776;2022-07-10T14:57:48;40.30;77.40
19224;DHT22;9746;47.180;9.776;2022-07-10T15:00:15;40.00;74.50
19224;DHT22;9746;47.180;9.776;2022-07-10T15:02:46;39.60;76.60
19224;DHT22;9746;47.180;9.776;2022-07-10T15:05:13;39.90;75.40
19224;DHT22;9746;47.180;9.776;2022-07-10T15:07:41;40.20;73.60
19224;DHT22;9746;47.180;9.776;2022-07-10T15:10:09;39.80;74.00
19224;DHT22;9746;47.180;9.776;2022-07-10T15:12:36;39.60;75.40
19224;DHT22;9746;47.180;9.776;2022-07-10T15:15:05;39.10;73.10
19224;DHT22;9746;47.180;9.776;2022-07-10T15:17:36;38.30;75.30
19224;DHT22;9746;47.180;9.776;2022-07-10T15:20:06;37.70;75.70
19224;DHT22;9746;47.180;9.776;2022-07-10T15:22:34;37.80;76.20
19224;DHT22;9746;47.180;9.776;2022-07-10T15:25:02;38.50;75.20
19224;DHT22;9746;47.180;9.776;2022-07-10T15:27:29;39.00;74.10
19224;DHT22;9746;47.180;9.776;2022-07-10T15:29:57;39.00;72.60
19224;DHT22;9746;47.180;9.776;2022-07-10T15:32:24;39.50;72.90
19224;DHT22;9746;47.180;9.776;2022-07-10T15:34:51;38.80;72.10
19224;DHT22;9746;47.180;9.776;2022-07-10T15:37:20;37.70;72.80
19224;DHT22;9746;47.180;9.776;2022-07-10T15:39:48;37.50;73.10
19224;DHT22;9746;47.180;9.776;2022-07-10T15:42:16;36.60;74.50
19224;DHT22;9746;47.180;9.776;2022-07-10T15:44:44;36.60;74.80
19224;DHT22;9746;47.180;9.776;2022-07-10T15:47:17;35.70;74.90
19224;DHT22;9746;47.180;9.776;2022-07-10T15:49:45;34.70;77.90
19224;DHT22;9746;47.180;9.776;2022-07-10T15:52:12;34.50;77.80
19224;DHT22;9746;47.180;9.776;2022-07-10T15:54:42;34.00;78.30
19224;DHT22;9746;47.180;9.776;2022-07-10T15:57:10;32.90;80.40
19224;DHT22;9746;47.180;9.776;2022-07-10T15:59:39;31.50;81.80
19224;DHT22;9746;47.180;9.776;2022-07-10T16:02:07;30.30;84.70
19224;DHT22;9746;47.180;9.776;2022-07-10T16:04:37;29.40;87.80
19224;DHT22;9746;47.180;9.776;2022-07-10T16:07:05;28.40;90.10
19224;DHT22;9746;47.180;9.776;2022-07-10T16:09:33;28.30;90.30
19224;DHT22;9746;47.180;9.776;2022-07-10T16:12:03;27.90;90.80
19224;DHT22;9746;47.180;9.776;2022-07-10T16:14:31;27.50;91.20
19224;DHT22;9746;47.180;9.776;2022-07-10T16:16:59;27.30;91.40
19224;DHT22;9746;47.180;9.776;2022-07-10T16:19:27;26.90;91.60
19224;DHT22;9746;47.180;9.776;2022-07-10T16:21:55;26.80;92.40
19224;DHT22;9746;47.180;9.776;2022-07-10T16:24:22;27.30;92.20
19224;DHT22;9746;47.180;9.776;2022-07-10T16:26:52;28.00;91.90
19224;DHT22;9746;47.180;9.776;2022-07-10T16:29:20;28.40;91.10
19224;DHT22;9746;47.180;9.776;2022-07-10T16:31:50;28.60;90.90
19224;DHT22;9746;47.180;9.776;2022-07-10T16:34:18;28.60;90.90
19224;DHT22;9746;47.180;9.776;2022-07-10T16:36:45;28.10;91.30
19224;DHT22;9746;47.180;9.776;2022-07-10T16:39:13;28.00;91.40
19224;DHT22;9746;47.180;9.776;2022-07-10T16:41:40;27.80;91.90
19224;DHT22;9746;47.180;9.776;2022-07-10T16:44:08;27.70;91.40
19224;DHT22;9746;47.180;9.776;2022-07-10T16:46:41;27.70;92.20
19224;DHT22;9746;47.180;9.776;2022-07-10T16:49:08;27.70;92.50
19224;DHT22;9746;47.180;9.776;2022-07-10T16:51:36;27.70;92.30
19224;DHT22;9746;47.180;9.776;2022-07-10T16:54:03;27.40;92.10
19224;DHT22;9746;47.180;9.776;2022-07-10T16:56:32;27.10;92.70
19224;DHT22;9746;47.180;9.776;2022-07-10T16:58:59;26.90;92.90
19224;DHT22;9746;47.180;9.776;2022-07-10T17:01:27;26.60;92.70
19224;DHT22;9746;47.180;9.776;2022-07-10T17:03:56;26.20;93.20
19224;DHT22;9746;47.180;9.776;2022-07-10T17:06:24;26.00;93.30
19224;DHT22;9746;47.180;9.776;2022-07-10T17:08:52;25.70;93.90
19224;DHT22;9746;47.180;9.776;2022-07-10T17:11:23;25.40;94.50
19224;DHT22;9746;47.180;9.776;2022-07-10T17:13:51;25.30;94.80
19224;DHT22;9746;47.180;9.776;2022-07-10T17:16:19;25.20;94.60
19224;DHT22;9746;47.180;9.776;2022-07-10T17:18:46;25.10;94.60
19224;DHT22;9746;47.180;9.776;2022-07-10T17:21:15;25.10;94.40
19224;DHT22;9746;47.180;9.776;2022-07-10T17:23:44;25.00;94.10
19224;DHT22;9746;47.180;9.776;2022-07-10T17:26:12;25.00;93.80
19224;DHT22;9746;47.180;9.776;2022-07-10T17:28:39;24.90;94.00
19224;DHT22;9746;47.180;9.776;2022-07-10T17:31:07;24.80;94.40
19224;DHT22;9746;47.180;9.776;2022-07-10T17:33:34;24.70;94.50
19224;DHT22;9746;47.180;9.776;2022-07-10T17:36:02;24.70;94.30
19224;DHT22;9746;47.180;9.776;2022-07-10T17:38:32;24.70;94.50
19224;DHT22;9746;47.180;9.776;2022-07-10T17:40:59;24.70;94.10
19224;DHT22;9746;47.180;9.776;2022-07-10T17:43:28;24.60;94.50
19224;DHT22;9746;47.180;9.776;2022-07-10T17:45:55;24.70;94.50
19224;DHT22;9746;47.180;9.776;2022-07-10T17:48:23;24.30;94.60
19224;DHT22;9746;47.180;9.776;2022-07-10T17:50:51;24.30;95.10
19224;DHT22;9746;47.180;9.776;2022-07-10T17:53:19;24.30;95.30
19224;DHT22;9746;47.180;9.776;2022-07-10T17:55:48;24.30;95.50
19224;DHT22;9746;47.180;9.776;2022-07-10T17:58:16;24.20;95.80
19224;DHT22;9746;47.180;9.776;2022-07-10T18:00:44;24.10;95.70
19224;DHT22;9746;47.180;9.776;2022-07-10T18:03:12;23.90;95.80
19224;DHT22;9746;47.180;9.776;2022-07-10T18:05:39;23.80;95.80
19224;DHT22;9746;47.180;9.776;2022-07-10T18:08:12;23.70;96.10
19224;DHT22;9746;47.180;9.776;2022-07-10T18:10:40;23.50;96.30
19224;DHT22;9746;47.180;9.776;2022-07-10T18:13:09;23.40;96.50
19224;DHT22;9746;47.180;9.776;2022-07-10T18:15:36;23.20;96.70
19224;DHT22;9746;47.180;9.776;2022-07-10T18:18:04;23.00;96.80
19224;DHT22;9746;47.180;9.776;2022-07-10T18:20:31;22.90;97.00
19224;DHT22;9746;47.180;9.776;2022-07-10T18:23:00;22.80;97.00
19224;DHT22;9746;47.180;9.776;2022-07-10T18:25:28;22.80;97.20
19224;DHT22;9746;47.180;9.776;2022-07-10T18:27:55;22.80;97.30
19224;DHT22;9746;47.180;9.776;2022-07-10T18:30:24;22.60;97.60
19224;DHT22;9746;47.180;9.776;2022-07-10T18:32:52;22.60;97.70
19224;DHT22;9746;47.180;9.776;2022-07-10T18:35:37;22.60;97.90
19224;DHT22;9746;47.180;9.776;2022-07-10T18:38:04;22.50;98.90
19224;DHT22;9746;47.180;9.776;2022-07-10T18:40:32;22.30;99.50
19224;DHT22;9746;47.180;9.776;2022-07-10T18:42:59;22.20;99.90
19224;DHT22;9746;47.180;9.776;2022-07-10T18:45:30;22.00;99.90
19224;DHT22;9746;47.180;9.776;2022-07-10T18:47:57;22.00;99.90
19224;DHT22;9746;47.180;9.776;2022-07-10T18:50:25;22.00;99.90
19224;DHT22;9746;47.180;9.776;2022-07-10T18:52:53;22.00;99.90
19224;DHT22;9746;47.180;9.776;2022-07-10T18:55:20;22.00;99.90
19224;DHT22;9746;47.180;9.776;2022-07-10T18:57:48;22.00;99.90
19224;DHT22;9746;47.180;9.776;2022-07-10T19:00:16;21.90;99.90
19224;DHT22;9746;47.180;9.776;2022-07-10T19:02:44;22.00;99.90
19224;DHT22;9746;47.180;9.776;2022-07-10T19:05:12;22.00;99.90
19224;DHT22;9746;47.180;9.776;2022-07-10T19:07:39;22.00;99.90
19224;DHT22;9746;47.180;9.776;2022-07-10T19:10:08;22.00;99.90
19224;DHT22;9746;47.180;9.776;2022-07-10T19:12:36;22.00;99.90
19224;DHT22;9746;47.180;9.776;2022-07-10T19:15:04;22.00;99.90
19224;DHT22;9746;47.180;9.776;2022-07-10T19:17:32;21.80;99.90
19224;DHT22;9746;47.180;9.776;2022-07-10T19:20:01;21.70;99.90
19224;DHT22;9746;47.180;9.776;2022-07-10T19:22:28;21.80;99.90
19224;DHT22;9746;47.180;9.776;2022-07-10T19:24:55;21.70;99.90
19224;DHT22;9746;47.180;9.776;2022-07-10T19:27:23;21.80;99.90
19224;DHT22;9746;47.180;9.776;2022-07-10T19:29:50;21.70;99.90
19224;DHT22;9746;47.180;9.776;2022-07-10T19:32:18;21.60;99.90
19224;DHT22;9746;47.180;9.776;2022-07-10T19:34:46;21.60;99.90
19224;DHT22;9746;47.180;9.776;2022-07-10T19:37:14;21.50;99.90
19224;DHT22;9746;47.180;9.776;2022-07-10T19:39:42;21.50;99.90
19224;DHT22;9746;47.180;9.776;2022-07-10T19:42:09;21.40;99.90
19224;DHT22;9746;47.180;9.776;2022-07-10T19:44:38;21.40;99.90
19224;DHT22;9746;47.180;9.776;2022-07-10T19:47:07;21.40;99.90
19224;DHT22;9746;47.180;9.776;2022-07-10T19:49:34;21.40;99.90
19224;DHT22;9746;47.180;9.776;2022-07-10T19:52:02;21.40;99.90
19224;DHT22;9746;47.180;9.776;2022-07-10T19:54:31;21.30;99.90
19224;DHT22;9746;47.180;9.776;2022-07-10T19:56:59;21.30;99.90
19224;DHT22;9746;47.180;9.776;2022-07-10T19:59:26;21.30;99.90
19224;DHT22;9746;47.180;9.776;2022-07-10T20:01:54;21.30;99.90
19224;DHT22;9746;47.180;9.776;2022-07-10T20:04:21;21.20;99.90
19224;DHT22;9746;47.180;9.776;2022-07-10T20:06:48;21.00;99.90
19224;DHT22;9746;47.180;9.776;2022-07-10T20:09:16;21.10;99.90
19224;DHT22;9746;47.180;9.776;2022-07-10T20:11:45;21.00;99.90
19224;DHT22;9746;47.180;9.776;2022-07-10T20:14:13;21.00;99.90
